Time;durP1;ratioP1;P1;durP2;ratioP2;P2;SDS_P1;SDS_P2;PMS_P1;PMS_P2;Temp;Humidity;BMP_temperature;BMP_pressure;BME280_temperature;BME280_humidity;BME280_pressure;Samples;Min_cycle;Max_cycle;Signal;HPM_P1;HPM_P2
2021/08/17 00:00:44;;;;;;;4.50;2.13;;;;;;;17.95;93.77;97134.66;5056493;28;20048;-86
2021/08/17 00:03:10;;;;;;;3.38;1.77;;;;;;;17.94;97.81;97157.19;5056113;28;20480;-88
2021/08/17 00:05:37;;;;;;;11.80;3.75;;;;;;;18.07;100.00;97189.88;5074112;28;20062;-87
2021/08/17 00:08:04;;;;;;;1.48;0.80;;;;;;;18.22;100.00;97199.31;5074092;28;20029;-87
2021/08/17 00:10:29;;;;;;;4.45;0.93;;;;;;;18.28;98.67;97224.75;5074224;28;20070;-87
2021/08/17 00:12:54;;;;;;;1.00;0.70;;;;;;;18.23;97.06;97225.03;5073730;28;20033;-88
2021/08/17 00:15:20;;;;;;;1.40;0.57;;;;;;;18.35;94.65;97228.47;5055613;28;20025;-87
2021/08/17 00:17:45;;;;;;;3.55;0.60;;;;;;;18.50;92.84;97218.50;5073815;28;20074;-88
2021/08/17 00:20:12;;;;;;;1.17;0.50;;;;;;;18.42;90.21;97213.97;5074478;28;20035;-87
2021/08/17 00:22:38;;;;;;;2.65;0.63;;;;;;;18.34;92.16;97245.44;5056398;28;20420;-87
2021/08/17 00:25:05;;;;;;;0.75;0.60;;;;;;;18.58;92.84;97264.56;5073217;28;20078;-88
2021/08/17 00:27:31;;;;;;;2.15;0.57;;;;;;;18.25;91.88;97275.31;5057382;28;20032;-87
2021/08/17 00:29:56;;;;;;;1.25;0.50;;;;;;;18.23;94.12;97316.41;5078733;28;20040;-88
2021/08/17 00:32:21;;;;;;;4.63;0.90;;;;;;;18.36;93.64;97329.75;5082333;28;20033;-88
2021/08/17 00:34:47;;;;;;;1.00;0.50;;;;;;;18.30;93.89;97295.19;5070744;28;20059;-87
2021/08/17 00:37:13;;;;;;;1.77;0.40;;;;;;;18.34;93.94;97290.56;5079874;28;20051;-85
2021/08/17 00:39:39;;;;;;;0.25;0.25;;;;;;;18.27;94.07;97326.38;5096707;28;20013;-84
2021/08/17 00:42:06;;;;;;;1.02;0.40;;;;;;;18.31;93.36;97337.53;5077935;28;20043;-87
2021/08/17 00:44:33;;;;;;;4.50;1.00;;;;;;;18.31;91.58;97345.84;5078383;28;20028;-87
2021/08/17 00:46:58;;;;;;;0.90;0.65;;;;;;;18.43;93.08;97348.50;5080046;28;20062;-85
2021/08/17 00:49:25;;;;;;;1.35;0.65;;;;;;;18.36;93.78;97348.34;5065599;28;20074;-87
2021/08/17 00:51:55;;;;;;;4.43;1.30;;;;;;;18.25;90.90;97350.88;5057811;28;20035;-87
2021/08/17 00:54:21;;;;;;;1.48;0.88;;;;;;;18.31;92.69;97320.94;5075264;28;20017;-88
2021/08/17 00:56:48;;;;;;;1.58;1.13;;;;;;;18.07;88.67;97317.22;5074836;28;20024;-87
2021/08/17 00:59:14;;;;;;;2.50;0.40;;;;;;;18.13;88.97;97329.66;5073651;28;20016;-87
2021/08/17 01:01:41;;;;;;;0.52;0.40;;;;;;;18.10;90.90;97341.44;5073221;28;20031;-87
2021/08/17 01:04:08;;;;;;;0.47;0.40;;;;;;;17.98;91.83;97338.75;5073469;28;20115;-86
2021/08/17 01:06:35;;;;;;;0.60;0.40;;;;;;;18.08;92.12;97343.75;5055385;28;20024;-88
2021/08/17 01:09:00;;;;;;;0.75;0.52;;;;;;;17.91;92.64;97346.09;5073884;28;20074;-86
2021/08/17 01:11:26;;;;;;;0.90;0.63;;;;;;;17.78;93.01;97353.69;5073452;28;20029;-86
2021/08/17 01:13:52;;;;;;;1.73;0.90;;;;;;;17.61;94.22;97373.38;5074439;28;20024;-87
2021/08/17 01:16:22;;;;;;;2.50;0.40;;;;;;;17.75;95.94;97376.53;5055927;28;20028;-86
2021/08/17 01:18:48;;;;;;;0.85;0.50;;;;;;;17.83;95.28;97377.50;5088705;28;20024;-86
2021/08/17 01:21:15;;;;;;;4.32;0.80;;;;;;;17.96;94.94;97374.28;5073028;28;20025;-88
2021/08/17 01:23:41;;;;;;;1.95;0.63;;;;;;;17.95;94.78;97386.50;5073198;28;20026;-87
2021/08/17 01:26:06;;;;;;;1.20;0.40;;;;;;;17.92;94.64;97381.69;5055042;28;20963;-85
2021/08/17 01:28:32;;;;;;;0.93;0.55;;;;;;;17.97;94.26;97381.44;5055218;28;20020;-86
2021/08/17 01:31:06;;;;;;;0.63;0.50;;;;;;;17.98;94.71;97376.72;5055273;28;20107;-87
2021/08/17 01:33:33;;;;;;;1.75;0.70;;;;;;;17.92;95.01;97370.63;5073480;28;20025;-88
2021/08/17 01:35:58;;;;;;;1.95;0.50;;;;;;;18.01;93.87;97371.25;5075484;28;20049;-86
2021/08/17 01:38:24;;;;;;;1.67;0.43;;;;;;;17.99;94.20;97394.91;5058898;28;20470;-87
2021/08/17 01:40:50;;;;;;;1.52;0.75;;;;;;;18.01;92.99;97396.16;5079346;28;20033;-86
2021/08/17 01:43:16;;;;;;;2.67;0.88;;;;;;;18.02;94.04;97396.97;5067232;28;20026;-86
2021/08/17 01:45:58;;;;;;;1.88;0.90;;;;;;;18.03;93.55;97388.31;5089879;28;20082;-84
2021/08/17 01:48:29;;;;;;;3.58;0.70;;;;;;;17.94;92.72;97400.72;5062206;28;20119;-85
2021/08/17 01:50:55;;;;;;;2.75;0.73;;;;;;;18.13;92.95;97393.31;5076208;28;20033;-87
2021/08/17 01:53:22;;;;;;;2.30;0.90;;;;;;;17.98;92.34;97402.41;5075950;28;20025;-86
2021/08/17 01:55:48;;;;;;;5.32;0.68;;;;;;;18.05;92.93;97419.19;5058162;28;20095;-85
2021/08/17 01:58:14;;;;;;;4.05;0.95;;;;;;;18.02;90.89;97413.56;5092139;28;20111;-85
2021/08/17 02:00:40;;;;;;;3.80;1.65;;;;;;;17.89;91.57;97412.03;5058088;28;20051;-85
2021/08/17 02:03:05;;;;;;;4.95;2.15;;;;;;;18.06;91.38;97433.84;5075490;28;20032;-84
2021/08/17 02:05:31;;;;;;;4.85;0.85;;;;;;;17.91;91.70;97424.38;5057624;28;20166;-86
2021/08/17 02:07:56;;;;;;;2.42;1.30;;;;;;;18.02;92.27;97424.63;5075810;28;20089;-87
2021/08/17 02:10:22;;;;;;;2.55;0.70;;;;;;;18.02;91.85;97436.53;5076111;28;20039;-87
2021/08/17 02:12:47;;;;;;;0.85;0.60;;;;;;;18.14;90.55;97430.09;5075684;28;20047;-85
2021/08/17 02:15:13;;;;;;;1.95;0.82;;;;;;;18.32;89.53;97436.09;5057819;28;20052;-86
2021/08/17 02:17:38;;;;;;;0.68;0.50;;;;;;;18.34;87.47;97428.22;5057720;28;20030;-87
2021/08/17 02:20:05;;;;;;;1.55;0.52;;;;;;;18.31;87.85;97440.00;5057835;28;20024;-85
2021/08/17 02:22:31;;;;;;;1.48;0.63;;;;;;;18.30;88.92;97446.69;5075059;28;20115;-86
2021/08/17 02:24:56;;;;;;;1.35;0.50;;;;;;;18.24;89.66;97445.34;5089987;28;20116;-85
2021/08/17 02:27:21;;;;;;;1.15;0.50;;;;;;;18.22;90.08;97442.16;5056958;28;20031;-85
2021/08/17 02:29:47;;;;;;;1.48;0.75;;;;;;;18.23;87.87;97446.53;5074736;28;20473;-85
2021/08/17 02:32:12;;;;;;;2.60;0.73;;;;;;;18.08;87.11;97446.16;5090066;28;20495;-85
2021/08/17 02:34:38;;;;;;;0.70;0.70;;;;;;;18.24;87.28;97454.47;5056205;28;20025;-88
2021/08/17 02:37:03;;;;;;;1.08;0.55;;;;;;;18.09;87.10;97450.56;5056251;28;20032;-86
2021/08/17 02:39:29;;;;;;;4.32;0.50;;;;;;;18.22;88.03;97462.34;5062511;28;20021;-86
2021/08/17 02:41:54;;;;;;;3.70;1.08;;;;;;;18.29;87.43;97467.25;5075387;28;20477;-86
2021/08/17 02:44:20;;;;;;;0.98;0.50;;;;;;;18.25;87.90;97464.41;5057405;28;20016;-87
2021/08/17 02:46:45;;;;;;;0.40;0.40;;;;;;;18.07;88.90;97463.94;5074824;28;20032;-88
2021/08/17 02:49:11;;;;;;;1.65;0.82;;;;;;;17.91;89.47;97457.59;5056883;28;20021;-86
2021/08/17 02:51:36;;;;;;;3.72;0.63;;;;;;;18.11;88.82;97455.72;5074760;28;20028;-86
2021/08/17 02:54:02;;;;;;;2.58;0.95;;;;;;;18.53;87.27;97461.56;5075186;28;20386;-86
2021/08/17 02:56:27;;;;;;;3.38;1.65;;;;;;;18.30;87.05;97466.06;5074502;28;20031;-86
2021/08/17 02:58:53;;;;;;;6.00;0.80;;;;;;;18.31;87.08;97468.50;5075002;28;20024;-86
2021/08/17 03:01:19;;;;;;;0.82;0.50;;;;;;;18.22;88.34;97470.66;5057393;28;20021;-86
2021/08/17 03:03:44;;;;;;;3.47;0.88;;;;;;;18.24;87.67;97475.81;5057341;28;20016;-85
2021/08/17 03:06:10;;;;;;;1.23;0.50;;;;;;;18.08;88.16;97468.31;5056997;28;20427;-86
2021/08/17 03:08:35;;;;;;;1.77;0.75;;;;;;;18.11;87.53;97473.13;5090683;28;20424;-86
2021/08/17 03:11:00;;;;;;;0.65;0.57;;;;;;;18.15;88.32;97474.03;5074797;28;20036;-86
2021/08/17 03:13:26;;;;;;;2.42;0.88;;;;;;;17.92;88.50;97470.25;5090893;28;20055;-86
2021/08/17 03:15:51;;;;;;;2.35;0.30;;;;;;;18.06;89.70;97478.94;5074444;28;20016;-88
2021/08/17 03:18:17;;;;;;;1.92;0.95;;;;;;;18.11;89.36;97475.91;5074360;28;20452;-89
2021/08/17 03:20:42;;;;;;;2.13;0.93;;;;;;;18.35;87.76;97482.44;5074527;28;20489;-88
2021/08/17 03:23:09;;;;;;;2.00;1.00;;;;;;;17.89;89.18;97476.50;5056677;28;20021;-88
2021/08/17 03:25:34;;;;;;;4.25;0.52;;;;;;;17.72;89.04;97470.50;5074614;28;20063;-86
2021/08/17 03:28:00;;;;;;;6.13;1.23;;;;;;;17.84;89.65;97451.06;5056878;28;20044;-87
2021/08/17 03:30:26;;;;;;;4.47;0.70;;;;;;;18.12;88.53;97471.97;5091144;28;20058;-87
2021/08/17 03:32:52;;;;;;;1.85;0.60;;;;;;;18.01;86.68;97484.72;5074729;28;20028;-86
2021/08/17 03:35:18;;;;;;;5.32;0.55;;;;;;;18.01;86.91;97484.72;5056658;28;20186;-86
2021/08/17 03:37:44;;;;;;;1.92;0.90;;;;;;;17.95;86.99;97490.91;5074022;28;20059;-88
2021/08/17 03:40:13;;;;;;;2.80;1.67;;;;;;;17.79;87.88;97482.56;5056982;28;20024;-87
2021/08/17 03:42:40;;;;;;;1.00;0.75;;;;;;;18.11;87.53;97494.47;5056367;28;20125;-89
2021/08/17 03:45:07;;;;;;;0.43;0.35;;;;;;;18.32;85.93;97497.00;5056687;28;20033;-87
2021/08/17 03:47:32;;;;;;;1.50;0.60;;;;;;;18.28;84.51;97498.88;5073969;28;20123;-85
2021/08/17 03:49:58;;;;;;;1.70;0.50;;;;;;;18.19;82.25;97497.09;5090169;28;20020;-87
2021/08/17 03:52:23;;;;;;;1.70;0.45;;;;;;;18.22;80.99;97516.91;5074280;28;20021;-86
2021/08/17 03:54:49;;;;;;;0.88;0.65;;;;;;;18.29;82.51;97515.16;5075834;28;20032;-87
2021/08/17 03:57:14;;;;;;;1.40;0.70;;;;;;;18.21;85.09;97513.34;5055217;28;20035;-83
2021/08/17 03:59:40;;;;;;;2.17;0.60;;;;;;;18.26;85.18;97517.81;5077878;28;20032;-88
2021/08/17 04:02:05;;;;;;;4.57;0.57;;;;;;;18.16;86.88;97525.50;5106414;28;20391;-88
2021/08/17 04:04:31;;;;;;;1.15;1.00;;;;;;;18.14;86.31;97533.34;5073902;28;20028;-88
2021/08/17 04:06:56;;;;;;;1.70;0.60;;;;;;;18.14;86.61;97544.41;5056262;28;20024;-87
2021/08/17 04:09:21;;;;;;;0.50;0.50;;;;;;;18.17;84.00;97531.81;5075369;28;20025;-89
2021/08/17 04:11:47;;;;;;;0.57;0.57;;;;;;;18.24;84.03;97526.47;5059293;28;20471;-88
2021/08/17 04:14:12;;;;;;;1.20;0.95;;;;;;;18.38;83.78;97534.34;5090702;28;20033;-85
2021/08/17 04:16:38;;;;;;;1.42;0.68;;;;;;;18.52;81.48;97543.03;5087251;28;20031;-87
2021/08/17 04:19:03;;;;;;;0.47;0.40;;;;;;;18.47;80.23;97548.84;5075522;28;20024;-85
2021/08/17 04:21:29;;;;;;;5.07;0.60;;;;;;;18.50;80.88;97548.97;5072521;28;20115;-88
2021/08/17 04:23:56;;;;;;;1.60;1.17;;;;;;;18.53;83.28;97558.50;5073934;28;20083;-86
2021/08/17 04:26:22;;;;;;;3.65;0.90;;;;;;;18.54;85.04;97551.81;5066640;28;20032;-85
2021/08/17 04:28:47;;;;;;;2.40;1.08;;;;;;;18.44;82.07;97566.16;5034891;28;20036;-85
2021/08/17 04:31:13;;;;;;;1.77;1.13;;;;;;;18.59;81.80;97570.94;5060225;28;20756;-82
2021/08/17 04:33:38;;;;;;;1.20;0.60;;;;;;;18.81;80.16;97567.53;5053988;28;20110;-83
2021/08/17 04:36:04;;;;;;;1.38;0.68;;;;;;;19.09;79.65;97572.97;5071728;28;20911;-82
2021/08/17 04:38:29;;;;;;;1.63;0.47;;;;;;;19.03;79.54;97580.75;5053502;28;20032;-83
2021/08/17 04:40:55;;;;;;;1.75;0.75;;;;;;;18.87;80.68;97568.88;5073167;28;20119;-82
2021/08/17 04:43:20;;;;;;;4.30;0.85;;;;;;;18.92;80.58;97574.13;5051728;28;20021;-82
2021/08/17 04:45:47;;;;;;;0.98;0.75;;;;;;;19.01;81.41;97585.88;5049868;28;20029;-84
2021/08/17 04:48:12;;;;;;;1.40;0.80;;;;;;;18.68;84.98;97585.41;5044121;28;20044;-84
2021/08/17 04:50:38;;;;;;;2.58;0.95;;;;;;;18.66;85.48;97602.41;5052251;28;20033;-88
2021/08/17 04:53:04;;;;;;;1.45;1.00;;;;;;;18.59;86.48;97604.19;5035182;28;20052;-79
2021/08/17 04:55:29;;;;;;;1.80;1.23;;;;;;;18.33;88.50;97590.78;5058288;28;20021;-85
2021/08/17 04:57:58;;;;;;;1.63;1.08;;;;;;;18.44;89.82;97614.06;5059063;28;20028;-87
2021/08/17 05:00:26;;;;;;;1.80;0.95;;;;;;;18.45;90.41;97614.88;5056453;28;20044;-87
2021/08/17 05:02:52;;;;;;;3.08;1.25;;;;;;;18.62;90.05;97623.69;5053123;28;20116;-87
2021/08/17 05:05:18;;;;;;;0.85;0.65;;;;;;;18.48;86.96;97625.25;5054555;28;20025;-85
2021/08/17 05:07:49;;;;;;;5.85;0.90;;;;;;;18.24;88.05;97620.63;5055666;28;20025;-81
2021/08/17 05:10:16;;;;;;;1.17;0.68;;;;;;;18.23;89.46;97623.75;5546262;23;20048;-86
2021/08/17 05:12:42;;;;;;;2.40;0.95;;;;;;;18.28;90.03;97640.09;5079964;28;20161;-84
2021/08/17 05:15:09;;;;;;;0.63;0.63;;;;;;;18.32;89.89;97638.25;5076349;28;20033;-85
2021/08/17 05:17:35;;;;;;;1.33;1.10;;;;;;;18.31;88.93;97636.63;5075978;28;20028;-86
2021/08/17 05:23:08;;;;;;;6.25;0.90;;;;;;;18.02;91.05;97635.81;5076866;28;20051;-82
2021/08/17 05:25:36;;;;;;;3.75;1.48;;;;;;;17.82;92.37;97642.34;5072522;28;20051;-83
2021/08/17 05:28:24;;;;;;;1.58;1.02;;;;;;;17.90;94.44;97660.78;5087000;22;20067;-81
2021/08/17 05:30:52;;;;;;;1.67;1.33;;;;;;;17.67;94.64;97656.13;5073878;28;20024;-87
2021/08/17 05:33:20;;;;;;;2.38;1.15;;;;;;;17.68;94.07;97677.88;5074204;28;20028;-78
2021/08/17 05:35:45;;;;;;;3.28;0.73;;;;;;;17.74;94.05;97676.47;5073066;28;20507;-76
2021/08/17 05:38:11;;;;;;;4.38;0.85;;;;;;;17.71;93.68;97674.41;5072796;28;20025;-80
2021/08/17 05:40:37;;;;;;;1.10;0.75;;;;;;;17.66;91.82;97682.97;5072453;28;20039;-80
2021/08/17 05:43:04;;;;;;;2.00;1.15;;;;;;;17.80;92.53;97688.13;5072070;28;20024;-80
2021/08/17 05:45:30;;;;;;;2.42;0.90;;;;;;;17.73;91.78;97688.69;5074136;28;20036;-79
2021/08/17 05:47:56;;;;;;;4.80;1.08;;;;;;;17.67;92.01;97695.63;5073873;28;20066;-79
2021/08/17 05:50:21;;;;;;;1.20;0.90;;;;;;;17.59;92.66;97699.34;5073771;28;20374;-81
2021/08/17 05:52:47;;;;;;;1.30;0.70;;;;;;;17.50;92.45;97699.44;5072416;28;20422;-80
2021/08/17 05:55:13;;;;;;;2.20;1.08;;;;;;;17.69;92.19;97714.66;5072624;28;20020;-77
2021/08/17 05:57:38;;;;;;;4.20;0.88;;;;;;;17.60;91.43;97709.25;5072282;28;20081;-78
2021/08/17 06:00:06;;;;;;;0.90;0.68;;;;;;;17.48;91.27;97723.03;5073610;28;20028;-78
2021/08/17 06:02:32;;;;;;;3.25;0.60;;;;;;;17.40;92.10;97729.50;5073734;28;20055;-78
2021/08/17 06:04:57;;;;;;;1.48;0.75;;;;;;;17.38;91.79;97729.84;5072061;28;20063;-78
2021/08/17 06:07:23;;;;;;;1.33;0.90;;;;;;;17.53;88.63;97744.94;5071919;28;20143;-81
2021/08/17 06:09:51;;;;;;;2.03;1.60;;;;;;;17.48;87.74;97736.88;5073404;28;20021;-80
2021/08/17 06:12:16;;;;;;;1.40;0.80;;;;;;;17.45;87.35;97748.63;5073581;28;20025;-78
2021/08/17 06:14:42;;;;;;;4.97;1.05;;;;;;;17.45;86.67;97754.16;5072099;28;20085;-78
2021/08/17 06:17:08;;;;;;;3.63;1.30;;;;;;;17.66;85.86;97763.19;5071477;28;20086;-80
2021/08/17 06:19:34;;;;;;;4.40;1.25;;;;;;;17.67;86.74;97756.50;5073828;28;20035;-78
2021/08/17 06:21:59;;;;;;;1.65;1.00;;;;;;;17.54;86.32;97757.63;5072719;28;20473;-77
2021/08/17 06:24:25;;;;;;;7.05;1.10;;;;;;;17.81;86.35;97767.22;5072847;28;20036;-80
2021/08/17 06:26:50;;;;;;;1.38;0.98;;;;;;;17.70;86.26;97772.41;5072884;28;20067;-77
2021/08/17 06:29:16;;;;;;;1.85;1.15;;;;;;;17.76;86.78;97771.00;5074872;28;20033;-79
2021/08/17 06:31:43;;;;;;;2.42;0.90;;;;;;;17.80;87.43;97787.72;5077258;28;20070;-82
2021/08/17 06:34:08;;;;;;;6.32;1.30;;;;;;;17.81;86.79;97783.81;5075721;28;20051;-80
2021/08/17 06:36:37;;;;;;;3.47;2.13;;;;;;;17.68;87.71;97788.53;5071884;28;20048;-83
2021/08/17 06:39:04;;;;;;;2.90;1.10;;;;;;;17.81;87.24;97795.69;5071944;28;20039;-78
2021/08/17 06:41:30;;;;;;;1.48;0.90;;;;;;;18.00;86.92;97784.03;5073251;28;20024;-78
2021/08/17 06:43:55;;;;;;;4.65;0.80;;;;;;;17.88;87.80;97784.06;5072933;28;20023;-79
2021/08/17 06:46:21;;;;;;;5.38;1.42;;;;;;;17.98;86.92;97784.38;5071371;28;20024;-80
2021/08/17 06:48:46;;;;;;;7.55;1.00;;;;;;;18.18;87.11;97796.47;5072604;28;20531;-79
2021/08/17 06:51:12;;;;;;;2.42;0.90;;;;;;;18.18;87.68;97804.78;5070956;28;20373;-78
2021/08/17 06:53:39;;;;;;;1.05;0.77;;;;;;;18.15;88.94;97809.06;5072488;28;20369;-82
2021/08/17 06:56:05;;;;;;;2.17;0.80;;;;;;;18.08;89.30;97813.53;5072490;28;20024;-79
2021/08/17 06:58:30;;;;;;;2.20;0.85;;;;;;;18.13;89.21;97822.44;5071023;28;20021;-79
2021/08/17 07:00:57;;;;;;;3.40;1.17;;;;;;;18.13;89.93;97816.91;5071214;28;20402;-77
2021/08/17 07:03:22;;;;;;;1.17;0.90;;;;;;;18.22;90.05;97818.72;5070943;28;20107;-77
2021/08/17 07:05:48;;;;;;;1.77;1.05;;;;;;;18.30;89.34;97790.09;5072626;28;20591;-76
2021/08/17 07:08:14;;;;;;;2.15;1.17;;;;;;;18.15;90.44;97811.81;5072315;28;20043;-78
2021/08/17 07:10:42;;;;;;;7.93;1.17;;;;;;;18.26;91.14;97817.69;5071103;28;20031;-78
2021/08/17 07:13:07;;;;;;;1.30;0.63;;;;;;;18.46;89.46;97810.38;5071179;28;20032;-82
2021/08/17 07:15:33;;;;;;;5.78;1.40;;;;;;;18.30;90.41;97813.06;5072343;28;20043;-82
2021/08/17 07:17:58;;;;;;;2.22;1.20;;;;;;;18.37;90.09;97804.16;5055280;28;20508;-78
2021/08/17 07:20:24;;;;;;;2.83;1.10;;;;;;;18.68;89.21;97796.03;5072540;28;20055;-80
2021/08/17 07:22:49;;;;;;;2.15;1.02;;;;;;;18.47;88.97;97798.13;5071375;28;20082;-80
2021/08/17 07:25:15;;;;;;;2.00;1.02;;;;;;;18.56;89.70;97782.22;5072071;28;20119;-79
2021/08/17 07:27:40;;;;;;;3.25;0.85;;;;;;;19.73;84.80;97802.88;5055424;28;20114;-79
2021/08/17 07:30:11;;;;;;;1.50;0.85;;;;;;;20.55;79.74;97802.81;5052076;28;20111;-79
2021/08/17 07:32:37;;;;;;;2.42;1.77;;;;;;;20.93;75.95;97818.69;5052190;28;20366;-80
2021/08/17 07:35:03;;;;;;;2.17;1.05;;;;;;;19.95;79.96;97818.88;5055710;28;20086;-79
2021/08/17 07:37:28;;;;;;;0.95;0.65;;;;;;;19.32;80.22;97817.22;5059635;28;20029;-81
2021/08/17 07:39:54;;;;;;;3.63;1.10;;;;;;;19.32;81.46;97837.44;5058853;28;20017;-80
2021/08/17 07:42:19;;;;;;;1.65;0.77;;;;;;;19.21;82.63;97848.25;5060707;28;20030;-79
2021/08/17 07:44:45;;;;;;;4.05;0.90;;;;;;;18.99;82.84;97843.25;5060496;28;20035;-79
2021/08/17 07:47:10;;;;;;;1.42;1.00;;;;;;;19.01;83.18;97854.81;5059102;28;20083;-75
2021/08/17 07:49:35;;;;;;;3.47;0.98;;;;;;;18.53;85.38;97852.19;5057507;28;20041;-75
2021/08/17 07:52:01;;;;;;;1.33;0.98;;;;;;;18.42;84.50;97851.03;5058088;28;20428;-78
2021/08/17 07:54:27;;;;;;;1.58;0.75;;;;;;;18.47;82.87;97861.84;5058944;28;20028;-75
2021/08/17 07:56:53;;;;;;;2.38;0.85;;;;;;;18.36;83.79;97869.81;5060080;28;20024;-75
2021/08/17 07:59:19;;;;;;;1.95;1.15;;;;;;;18.43;82.13;97877.56;5059454;28;20071;-77
2021/08/17 08:01:45;;;;;;;7.00;1.38;;;;;;;18.29;81.82;97877.13;5057682;28;20027;-74
2021/08/17 08:04:11;;;;;;;3.38;1.45;;;;;;;18.39;82.44;97871.91;5059692;28;20013;-76
2021/08/17 08:06:36;;;;;;;1.90;1.38;;;;;;;18.49;80.02;97874.22;5061170;28;20032;-79
2021/08/17 08:09:03;;;;;;;4.03;1.13;;;;;;;18.58;79.03;97879.63;5059904;28;20021;-75
2021/08/17 08:11:29;;;;;;;2.80;1.05;;;;;;;18.41;78.69;97875.16;5053803;28;20017;-75
2021/08/17 08:13:56;;;;;;;1.70;0.90;;;;;;;18.43;79.27;97877.56;5054198;28;20076;-80
2021/08/17 08:16:22;;;;;;;2.75;1.00;;;;;;;18.57;77.41;97883.56;5059385;28;20016;-77
2021/08/17 08:18:48;;;;;;;1.10;0.80;;;;;;;18.62;77.54;97891.63;5055398;28;20114;-79
2021/08/17 08:21:13;;;;;;;2.70;1.10;;;;;;;18.72;77.77;97891.16;5066393;28;20020;-78
2021/08/17 08:23:39;;;;;;;1.75;0.80;;;;;;;18.78;77.63;97889.75;5059151;28;20392;-78
2021/08/17 08:26:04;;;;;;;1.92;1.35;;;;;;;18.68;77.76;97868.88;5061807;28;20036;-76
2021/08/17 08:28:29;;;;;;;2.15;1.30;;;;;;;18.75;76.22;97893.22;5064652;28;20072;-75
2021/08/17 08:30:55;;;;;;;1.08;0.88;;;;;;;18.69;76.54;97902.94;5056287;28;20033;-74
2021/08/17 08:33:20;;;;;;;2.58;1.25;;;;;;;18.76;74.96;97896.81;5058975;28;20040;-77
2021/08/17 08:35:46;;;;;;;6.28;2.80;;;;;;;18.97;74.67;97925.97;5058000;28;20032;-75
2021/08/17 08:38:12;;;;;;;2.40;1.05;;;;;;;18.59;74.46;97904.22;5052663;28;20042;-77
2021/08/17 08:40:38;;;;;;;1.90;1.10;;;;;;;18.71;74.82;97920.03;5060253;28;20025;-75
2021/08/17 08:43:04;;;;;;;1.20;0.88;;;;;;;18.93;73.96;97919.50;5060291;28;20070;-76
2021/08/17 08:45:29;;;;;;;1.67;0.73;;;;;;;19.01;73.80;97915.00;5059159;28;20436;-75
2021/08/17 08:47:55;;;;;;;1.75;0.95;;;;;;;19.20;72.21;97917.94;5065593;28;20137;-75
2021/08/17 08:50:21;;;;;;;4.38;1.70;;;;;;;19.46;72.37;97914.72;5055946;28;20442;-75
2021/08/17 08:52:46;;;;;;;2.95;0.85;;;;;;;19.80;68.85;97918.84;5062668;28;20529;-75
2021/08/17 08:55:12;;;;;;;0.55;0.52;;;;;;;19.77;69.75;97925.88;5057881;28;20020;-75
2021/08/17 08:57:38;;;;;;;1.55;0.95;;;;;;;19.59;69.22;97921.81;5056007;28;20029;-77
2021/08/17 09:00:12;;;;;;;3.35;1.23;;;;;;;19.34;71.56;97923.88;5058841;28;20024;-76
2021/08/17 09:02:38;;;;;;;2.00;1.00;;;;;;;19.56;70.37;97930.88;5057910;28;20124;-74
2021/08/17 09:05:04;;;;;;;2.63;1.05;;;;;;;19.96;68.91;97933.53;5055795;28;20120;-76
2021/08/17 09:07:42;;;;;;;2.35;0.80;;;;;;;19.67;70.93;97937.53;5056384;28;20021;-76
2021/08/17 09:10:13;;;;;;;1.92;1.33;;;;;;;19.76;70.54;97936.22;5058400;28;20029;-75
2021/08/17 09:12:59;;;;;;;4.75;3.13;;;;;;;19.83;70.59;97935.56;5053983;28;20013;-75
2021/08/17 09:15:33;;;;;;;1.60;1.30;;;;;;;19.98;71.56;97937.56;5054830;28;20024;-75
2021/08/17 09:18:10;;;;;;;1.13;0.85;;;;;;;20.06;70.54;97942.13;5057427;28;20793;-74
2021/08/17 09:20:44;;;;;;;1.50;1.10;;;;;;;20.11;69.19;97936.31;5058042;28;20108;-75
2021/08/17 09:23:22;;;;;;;2.08;1.00;;;;;;;20.30;68.16;97944.75;5066127;28;20420;-76
2021/08/17 09:25:47;;;;;;;2.05;1.27;;;;;;;20.25;67.50;97944.19;5056095;28;20495;-76
2021/08/17 09:28:33;;;;;;;2.22;0.98;;;;;;;20.41;68.80;97952.56;5068346;28;20052;-75
2021/08/17 09:31:01;;;;;;;0.98;0.68;;;;;;;20.15;68.67;97959.44;5068724;28;20040;-74
2021/08/17 09:33:53;;;;;;;1.88;0.85;;;;;;;19.74;70.79;97962.69;5036789;28;20032;-75
2021/08/17 09:36:20;;;;;;;3.80;1.05;;;;;;;20.07;70.28;97954.06;5041802;28;20523;-74
2021/08/17 09:38:45;;;;;;;1.90;1.08;;;;;;;20.12;70.40;97960.16;5056411;28;20033;-75
2021/08/17 09:41:22;;;;;;;1.27;0.90;;;;;;;20.30;69.76;97972.53;5051441;28;20123;-75
2021/08/17 09:44:06;;;;;;;3.05;1.13;;;;;;;20.68;67.96;97971.09;5057221;28;20484;-74
2021/08/17 09:46:31;;;;;;;1.20;0.70;;;;;;;20.51;68.04;97971.47;5063943;28;20043;-75
2021/08/17 09:49:15;;;;;;;1.23;0.70;;;;;;;21.05;66.08;97977.13;5068411;28;20476;-76
2021/08/17 09:51:40;;;;;;;1.33;0.90;;;;;;;21.14;65.30;97973.00;5068716;28;20028;-76
2021/08/17 09:54:35;;;;;;;1.73;0.90;;;;;;;21.64;65.54;97974.88;5068628;28;20029;-77
2021/08/17 09:57:04;;;;;;;2.05;1.00;;;;;;;21.61;63.91;97983.94;5039419;28;20063;-75
2021/08/17 09:59:31;;;;;;;2.22;1.10;;;;;;;21.55;64.13;97984.59;5070412;28;20025;-77
2021/08/17 10:01:58;;;;;;;1.63;1.00;;;;;;;21.86;62.17;97984.44;5053496;28;20056;-76
2021/08/17 10:04:28;;;;;;;1.42;1.27;;;;;;;22.37;60.82;97985.81;5056875;28;20086;-75
2021/08/17 10:06:59;;;;;;;2.58;0.90;;;;;;;22.19;61.53;97979.13;5063194;28;20024;-77
2021/08/17 10:09:25;;;;;;;1.40;1.08;;;;;;;21.90;62.86;97976.97;5060464;28;20496;-75
2021/08/17 10:11:51;;;;;;;4.68;1.05;;;;;;;21.96;62.55;97978.28;5061366;28;20044;-77
2021/08/17 10:14:17;;;;;;;1.20;0.85;;;;;;;22.46;62.03;97973.63;5061703;28;20493;-75
2021/08/17 10:16:44;;;;;;;2.25;1.20;;;;;;;22.69;61.24;97964.06;5057465;28;20029;-75
2021/08/17 10:19:22;;;;;;;3.28;0.93;;;;;;;22.06;62.16;97972.09;5082706;28;20427;-78
2021/08/17 10:21:50;;;;;;;0.95;0.82;;;;;;;21.71;62.38;97968.59;5065182;28;20017;-75
2021/08/17 10:24:39;;;;;;;1.05;0.80;;;;;;;21.85;62.93;97954.97;5059431;28;20086;-79
2021/08/17 10:27:31;;;;;;;1.30;0.82;;;;;;;21.90;63.13;97951.13;5056677;28;20401;-77
2021/08/17 10:30:22;;;;;;;1.10;0.93;;;;;;;22.01;62.44;97949.31;5058043;28;20107;-76
2021/08/17 10:32:58;;;;;;;2.30;0.82;;;;;;;21.99;62.80;97951.69;5065538;28;20059;-75
2021/08/17 10:35:26;;;;;;;2.58;1.25;;;;;;;21.66;64.12;97944.66;5060065;28;21023;-76
2021/08/17 10:38:12;;;;;;;1.88;1.00;;;;;;;21.79;63.51;97942.50;5059242;28;20021;-75
2021/08/17 10:40:50;;;;;;;2.67;0.93;;;;;;;21.51;63.73;97939.16;5042054;28;20123;-75
2021/08/17 10:43:36;;;;;;;1.00;0.88;;;;;;;21.48;63.46;97937.13;5058927;28;20029;-75
2021/08/17 10:46:07;;;;;;;1.80;1.30;;;;;;;21.68;63.05;97935.91;5043101;28;20041;-75
2021/08/17 10:51:29;;;;;;;0.90;0.85;;;;;;;21.76;62.83;97941.28;5054956;28;20028;-76
2021/08/17 10:54:03;;;;;;;2.08;1.10;;;;;;;21.79;62.81;97932.19;5064976;28;20035;-74
2021/08/17 10:56:37;;;;;;;1.17;0.70;;;;;;;22.12;62.70;97933.59;5064401;28;20036;-74
2021/08/17 10:59:03;;;;;;;2.92;1.35;;;;;;;22.60;61.04;97938.38;5064439;28;20392;-75
2021/08/17 11:01:32;;;;;;;1.85;1.00;;;;;;;22.52;60.57;97941.44;5050074;28;20075;-75
2021/08/17 11:03:59;;;;;;;1.27;0.80;;;;;;;22.69;60.16;97949.31;5067235;28;20423;-74
2021/08/17 11:06:35;;;;;;;1.80;0.55;;;;;;;22.75;59.44;97950.59;5051331;28;20477;-76
2021/08/17 11:09:11;;;;;;;2.90;0.98;;;;;;;22.22;61.24;97925.41;5049768;28;20540;-74
2021/08/17 11:11:38;;;;;;;1.08;0.75;;;;;;;22.10;60.67;97938.72;5057926;28;20028;-76
2021/08/17 11:14:22;;;;;;;1.58;1.00;;;;;;;22.21;60.86;97940.50;5058508;28;20033;-75
2021/08/17 11:16:49;;;;;;;1.65;0.70;;;;;;;22.23;59.68;97940.97;5055914;28;20140;-76
2021/08/17 11:19:15;;;;;;;0.93;0.88;;;;;;;22.10;59.01;97945.13;5057056;28;20048;-75
2021/08/17 11:21:46;;;;;;;2.08;1.02;;;;;;;22.29;58.35;97945.06;5055280;28;20020;-74
2021/08/17 11:24:16;;;;;;;1.05;0.68;;;;;;;22.19;60.07;97945.66;5059374;28;20392;-74
2021/08/17 11:26:45;;;;;;;1.25;1.15;;;;;;;22.73;59.24;97950.16;5063113;28;20040;-75
2021/08/17 11:29:45;;;;;;;1.10;0.80;;;;;;;22.43;58.72;97944.47;5064290;28;20041;-76
2021/08/17 11:32:32;;;;;;;1.48;1.05;;;;;;;22.07;60.32;97948.66;5059794;28;20017;-74
2021/08/17 11:35:12;;;;;;;2.10;0.93;;;;;;;22.61;58.59;97948.38;5061100;28;20098;-76
2021/08/17 11:37:42;;;;;;;3.15;0.80;;;;;;;22.27;59.42;97952.19;5058253;28;20021;-77
2021/08/17 11:40:18;;;;;;;1.60;0.70;;;;;;;22.40;58.91;97940.44;5059395;28;20013;-74
2021/08/17 11:42:46;;;;;;;0.63;0.63;;;;;;;22.42;58.40;97948.44;5058238;28;20020;-75